createdAt,value
2023-01-09T00:16:12.554Z,11.63
2023-01-09T00:18:39.934Z,4.81
2023-01-09T00:21:09.114Z,0.20
2023-01-09T00:23:36.130Z,-3.00
2023-01-09T00:26:02.759Z,-5.44
2023-01-09T00:28:29.936Z,-7.67
2023-01-09T00:31:00.977Z,-9.30
2023-01-09T00:33:41.509Z,-10.48
2023-01-09T00:36:08.823Z,-11.29
2023-01-09T00:38:37.461Z,-12.01
2023-01-09T00:41:07.703Z,-12.72
2023-01-09T00:43:49.037Z,-13.32
2023-01-09T00:46:17.504Z,-13.67
2023-01-09T00:48:47.609Z,-14.09
2023-01-09T00:51:15.193Z,-14.46
2023-01-09T00:53:43.498Z,-14.69
2023-01-09T00:56:15.371Z,-14.96
2023-01-09T00:58:42.403Z,-15.09
2023-01-09T01:01:09.355Z,-15.28
2023-01-09T01:03:36.332Z,-15.43
2023-01-09T01:06:21.681Z,-15.53
2023-01-09T01:08:48.622Z,-15.57
2023-01-09T01:11:15.409Z,-15.58
2023-01-09T01:13:42.900Z,-15.63
2023-01-09T01:16:12.456Z,-15.66
2023-01-09T01:18:39.784Z,-15.74
2023-01-09T01:21:11.368Z,-15.83
2023-01-09T01:23:39.210Z,-15.78
2023-01-09T01:26:11.712Z,-15.85
2023-01-09T01:28:38.647Z,-15.91
2023-01-09T01:31:06.214Z,-15.92
2023-01-09T01:33:33.773Z,-15.96
2023-01-09T01:36:08.723Z,-16.02
2023-01-09T01:38:36.363Z,-16.11
2023-01-09T01:41:04.122Z,-16.09
2023-01-09T01:43:51.282Z,-16.14
2023-01-09T01:46:18.910Z,-16.13
2023-01-09T01:48:47.907Z,-16.11
2023-01-09T01:51:17.129Z,-16.11
2023-01-09T01:53:48.416Z,-16.11
2023-01-09T01:56:25.025Z,-16.16
2023-01-09T01:59:08.187Z,-16.19
2023-01-09T02:01:38.653Z,-16.13
2023-01-09T02:04:05.821Z,-16.13
2023-01-09T02:06:34.498Z,-16.11
2023-01-09T02:09:04.067Z,-16.09
2023-01-09T02:11:31.044Z,-16.13
2023-01-09T02:13:59.295Z,-16.15
2023-01-09T02:17:03.362Z,-16.21
2023-01-09T02:19:47.840Z,-16.16
2023-01-09T02:22:24.391Z,-16.15
2023-01-09T02:25:12.324Z,-16.15
2023-01-09T02:27:58.618Z,-16.22
2023-01-09T02:30:44.732Z,-16.21
2023-01-09T02:33:39.632Z,-16.22
2023-01-09T02:36:19.800Z,-16.25
2023-01-09T02:39:17.594Z,-16.26
2023-01-09T02:42:08.991Z,-16.21
2023-01-09T02:44:38.626Z,-16.16
2023-01-09T02:47:17.916Z,-16.23
2023-01-09T02:49:55.160Z,-16.24
2023-01-09T02:52:42.019Z,-16.24
2023-01-09T02:55:23.292Z,-16.24
2023-01-09T02:58:05.247Z,-16.24
2023-01-09T03:00:38.693Z,-16.26
2023-01-09T03:03:17.680Z,-16.23
2023-01-09T03:05:48.340Z,-16.24
2023-01-09T03:08:20.107Z,-16.22
2023-01-09T03:11:01.945Z,-16.41
2023-01-09T03:13:54.252Z,-16.24
2023-01-09T03:16:27.214Z,-16.22
2023-01-09T03:18:56.121Z,-16.18
2023-01-09T03:21:23.432Z,-16.20
2023-01-09T03:23:58.128Z,-16.25
2023-01-09T03:26:26.185Z,-16.28
2023-01-09T03:28:53.110Z,-16.17
2023-01-09T03:31:19.900Z,-16.16
2023-01-09T03:33:46.704Z,-16.18
2023-01-09T03:36:14.410Z,-16.30
2023-01-09T03:38:41.259Z,-16.13
2023-01-09T03:41:08.573Z,-16.10
2023-01-09T03:43:35.747Z,-16.12
2023-01-09T03:46:03.310Z,-16.11
2023-01-09T03:48:30.269Z,-16.13
2023-01-09T03:50:57.521Z,-16.28
2023-01-09T03:53:26.752Z,-16.12
2023-01-09T03:55:55.872Z,-16.09
2023-01-09T03:58:23.553Z,-16.10
2023-01-09T04:00:51.192Z,-16.09
2023-01-09T04:03:21.019Z,-16.09
2023-01-09T04:05:49.904Z,-16.15
2023-01-09T04:08:17.436Z,-16.15
2023-01-09T04:10:45.607Z,-16.19
2023-01-09T04:13:12.623Z,-16.24
2023-01-09T04:15:39.407Z,-16.20
2023-01-09T04:18:06.264Z,-16.25
2023-01-09T04:20:33.420Z,-16.23
2023-01-09T04:23:00.427Z,-16.21
2023-01-09T04:25:27.640Z,-16.24
2023-01-09T04:27:54.570Z,-16.27
2023-01-09T04:30:21.458Z,-16.27
2023-01-09T04:32:48.256Z,-16.27
2023-01-09T04:35:15.259Z,-16.24
2023-01-09T04:37:41.992Z,-16.22
2023-01-09T04:40:10.411Z,-16.20
2023-01-09T04:42:37.851Z,-16.25
2023-01-09T04:45:09.086Z,-16.27
2023-01-09T04:47:36.022Z,-16.43
2023-01-09T04:50:02.846Z,-16.30
2023-01-09T04:52:29.635Z,-16.27
2023-01-09T04:54:56.436Z,-16.25
2023-01-09T04:57:23.145Z,-16.28
2023-01-09T04:59:51.188Z,-16.32
2023-01-09T05:02:18.952Z,-16.28
2023-01-09T05:04:46.127Z,-16.27
2023-01-09T05:07:12.984Z,-16.28
2023-01-09T05:09:39.727Z,-16.33
2023-01-09T05:12:06.866Z,-16.35
2023-01-09T05:14:33.706Z,-16.25
2023-01-09T05:17:00.495Z,-16.24
2023-01-09T05:19:27.444Z,-16.29
2023-01-09T05:21:54.285Z,-16.35
2023-01-09T05:24:21.028Z,-16.38
2023-01-09T05:26:47.806Z,-16.37
2023-01-09T05:29:14.539Z,-16.40
2023-01-09T05:31:41.320Z,-16.42
2023-01-09T05:34:08.244Z,-16.39
2023-01-09T05:36:34.941Z,-16.38
2023-01-09T05:39:02.865Z,-16.37
2023-01-09T05:41:29.735Z,-16.39
2023-01-09T05:43:56.625Z,-16.37
2023-01-09T05:46:23.491Z,-16.38
2023-01-09T05:48:50.216Z,-16.52
2023-01-09T05:51:17.357Z,-16.53
2023-01-09T05:53:44.220Z,-16.55
2023-01-09T05:56:11.912Z,-16.50
2023-01-09T05:58:38.980Z,-16.51
2023-01-09T06:01:06.819Z,-16.51
2023-01-09T06:03:34.024Z,-16.50
2023-01-09T06:06:00.997Z,-16.46
2023-01-09T06:08:27.721Z,-16.50
2023-01-09T06:10:54.479Z,-16.56
2023-01-09T06:13:21.354Z,-16.63
2023-01-09T06:15:48.657Z,-16.88
2023-01-09T06:18:16.090Z,-16.72
2023-01-09T06:20:45.154Z,-16.80
2023-01-09T06:23:13.503Z,-16.78
2023-01-09T06:25:40.788Z,-16.78
2023-01-09T06:28:07.836Z,-16.71
2023-01-09T06:30:35.111Z,-16.72
2023-01-09T06:33:02.004Z,-16.77
2023-01-09T06:35:28.998Z,-16.89
2023-01-09T06:37:55.956Z,-16.91
2023-01-09T06:40:22.702Z,-16.89
2023-01-09T06:42:50.246Z,-16.93
2023-01-09T06:45:17.178Z,-16.93
2023-01-09T06:47:44.042Z,-16.90
2023-01-09T06:50:11.586Z,-16.87
2023-01-09T06:52:39.007Z,-16.87
2023-01-09T06:55:06.516Z,-16.87
2023-01-09T06:57:33.387Z,-16.86
2023-01-09T07:00:00.188Z,-16.87
2023-01-09T07:02:27.220Z,-16.93
2023-01-09T07:04:54.017Z,-16.93
2023-01-09T07:07:22.657Z,-16.98
2023-01-09T07:09:49.747Z,-16.92
2023-01-09T07:12:16.645Z,-16.87
2023-01-09T07:14:43.521Z,-16.91
2023-01-09T07:17:13.810Z,-17.12
2023-01-09T07:19:40.823Z,-16.95
2023-01-09T07:22:08.357Z,-17.01
2023-01-09T07:24:35.172Z,-17.06
2023-01-09T07:27:02.662Z,-17.06
2023-01-09T07:29:29.736Z,-17.08
2023-01-09T07:31:56.970Z,-17.10
2023-01-09T07:34:23.862Z,-17.10
2023-01-09T07:36:51.375Z,-17.18
2023-01-09T07:39:18.358Z,-17.15
2023-01-09T07:41:45.629Z,-17.16
2023-01-09T07:44:13.395Z,-17.15
2023-01-09T07:46:40.529Z,-17.17
2023-01-09T07:49:07.592Z,-17.18
2023-01-09T07:51:40.782Z,-17.24
2023-01-09T07:54:07.503Z,-17.26
2023-01-09T07:56:34.312Z,-17.33
2023-01-09T07:59:01.209Z,-17.53
2023-01-09T08:01:28.185Z,-17.39
2023-01-09T08:03:55.008Z,-17.38
2023-01-09T08:06:21.835Z,-17.39
2023-01-09T08:08:48.773Z,-17.58
2023-01-09T08:11:16.349Z,-17.37
2023-01-09T08:13:43.222Z,-17.32
2023-01-09T08:16:10.039Z,-17.34
2023-01-09T08:18:36.909Z,-17.44
2023-01-09T08:21:03.689Z,-17.42
2023-01-09T08:23:30.469Z,-17.48
2023-01-09T08:25:57.201Z,-17.46
2023-01-09T08:28:24.066Z,-17.48
2023-01-09T08:30:51.267Z,-17.46
2023-01-09T08:33:18.045Z,-17.46
2023-01-09T08:35:44.992Z,-17.40
2023-01-09T08:38:12.109Z,-17.39
2023-01-09T08:40:39.046Z,-17.55
2023-01-09T08:43:24.650Z,-17.40
2023-01-09T08:46:10.098Z,-17.43
2023-01-09T08:48:36.966Z,-17.61
2023-01-09T08:51:03.865Z,-17.31
2023-01-09T08:53:31.664Z,-17.28
2023-01-09T08:55:59.266Z,-17.23
2023-01-09T08:58:26.117Z,-17.28
2023-01-09T09:00:52.953Z,-17.22
2023-01-09T09:03:19.841Z,-17.13
2023-01-09T09:05:46.961Z,-17.19
2023-01-09T09:08:23.112Z,-17.18
2023-01-09T09:10:49.846Z,-17.14
2023-01-09T09:13:16.604Z,-17.15
2023-01-09T09:15:43.611Z,-17.15
2023-01-09T09:18:10.369Z,-17.19
2023-01-09T09:20:39.579Z,-17.26
2023-01-09T09:23:08.461Z,-17.22
2023-01-09T09:25:38.467Z,-17.11
2023-01-09T09:28:06.386Z,-17.08
2023-01-09T09:30:33.460Z,-17.02
2023-01-09T09:33:04.092Z,-16.91
2023-01-09T09:38:16.229Z,-16.94
2023-01-09T09:41:46.017Z,-16.91
2023-01-09T09:44:52.661Z,-16.92
2023-01-09T09:47:41.773Z,-16.83
2023-01-09T09:50:26.455Z,-16.81
2023-01-09T09:53:24.350Z,-16.81
2023-01-09T09:55:51.723Z,-16.78
2023-01-09T09:58:30.589Z,-16.87
2023-01-09T10:00:59.953Z,-17.05
2023-01-09T10:03:36.222Z,-17.06
2023-01-09T10:06:11.061Z,-16.84
2023-01-09T10:08:58.494Z,-16.80
2023-01-09T10:11:39.807Z,-16.79
2023-01-09T10:14:13.194Z,-16.82
2023-01-09T10:17:10.389Z,-16.82
2023-01-09T10:19:55.641Z,-16.90
2023-01-09T10:22:56.226Z,-16.90
2023-01-09T10:25:22.966Z,-16.88
2023-01-09T10:28:17.842Z,-16.86
2023-01-09T10:30:50.756Z,-16.95
2023-01-09T10:33:23.304Z,-16.92
2023-01-09T10:36:01.077Z,-16.80
2023-01-09T10:38:40.183Z,-16.70
2023-01-09T10:41:19.086Z,-16.68
2023-01-09T10:44:06.095Z,-16.65
2023-01-09T10:46:54.606Z,-16.63
2023-01-09T10:49:22.552Z,-16.59
2023-01-09T10:52:12.675Z,-16.57
2023-01-09T10:54:56.302Z,-16.51
2023-01-09T10:57:41.798Z,-16.49
2023-01-09T11:00:16.826Z,-16.43
2023-01-09T11:02:43.824Z,-16.42
2023-01-09T11:05:15.714Z,-16.41
2023-01-09T11:07:44.886Z,-16.38
2023-01-09T11:10:14.056Z,-16.27
2023-01-09T11:12:41.327Z,-16.19
2023-01-09T11:15:19.364Z,-16.09
2023-01-09T11:17:51.775Z,-16.05
2023-01-09T11:20:28.058Z,-15.99
2023-01-09T11:22:58.883Z,-15.92
2023-01-09T11:25:28.165Z,-15.91
2023-01-09T11:28:04.333Z,-15.86
2023-01-09T11:30:36.372Z,-15.88
2023-01-09T11:33:22.604Z,-15.80
2023-01-09T11:35:59.649Z,-15.82
2023-01-09T11:38:27.745Z,-15.85
2023-01-09T11:40:59.040Z,-16.04
2023-01-09T11:43:38.917Z,-16.12
2023-01-09T11:46:11.814Z,-16.13
2023-01-09T11:48:40.387Z,-16.21
2023-01-09T11:51:19.538Z,-16.07
2023-01-09T11:53:55.446Z,-16.04
2023-01-09T11:56:22.673Z,-16.08
2023-01-09T11:58:49.582Z,-16.00
2023-01-09T12:01:40.778Z,-16.07
2023-01-09T12:04:25.572Z,-16.12
2023-01-09T12:06:54.928Z,-16.07
2023-01-09T12:09:40.040Z,-16.09
2023-01-09T12:12:25.040Z,-16.09
2023-01-09T12:15:17.556Z,-16.04
2023-01-09T12:17:52.560Z,-16.09
2023-01-09T12:20:58.419Z,-16.10
2023-01-09T12:23:28.219Z,-16.10
2023-01-09T12:26:16.597Z,-16.16
2023-01-09T12:28:49.089Z,-16.18
2023-01-09T12:31:42.214Z,-16.17
2023-01-09T12:34:46.724Z,-16.20
2023-01-09T12:37:36.495Z,-16.21
2023-01-09T12:40:16.946Z,-16.20
2023-01-09T12:42:58.749Z,-16.19
2023-01-09T12:45:57.061Z,-16.16
2023-01-09T12:48:50.728Z,-16.21
2023-01-09T12:51:17.571Z,-16.29
2023-01-09T12:53:52.394Z,-16.33
2023-01-09T12:56:25.308Z,-16.31
2023-01-09T12:59:07.207Z,-16.33
2023-01-09T13:01:46.485Z,-16.40
2023-01-09T13:04:22.764Z,-16.42
2023-01-09T13:06:59.865Z,-16.40
2023-01-09T13:09:32.504Z,-16.35
2023-01-09T13:12:21.479Z,-16.62
2023-01-09T13:14:51.874Z,-16.50
2023-01-09T13:17:53.482Z,-16.51
2023-01-09T13:20:26.074Z,-16.55
2023-01-09T13:22:55.212Z,-16.58
2023-01-09T13:25:36.123Z,-16.62
2023-01-09T13:28:12.267Z,-16.64
2023-01-09T13:30:54.370Z,-16.70
2023-01-09T13:33:27.015Z,-16.72
2023-01-09T13:35:57.353Z,-16.78
2023-01-09T13:38:27.730Z,-16.85
2023-01-09T13:41:35.768Z,-16.89
2023-01-09T13:44:19.537Z,-16.93
2023-01-09T13:46:52.569Z,-16.91
2023-01-09T13:49:44.274Z,-16.89
2023-01-09T13:52:26.099Z,-16.94
2023-01-09T13:54:55.703Z,-16.94
2023-01-09T13:57:28.872Z,-16.95
2023-01-09T14:00:19.488Z,-16.93
2023-01-09T14:02:47.022Z,-16.95
2023-01-09T14:05:15.285Z,-16.99
2023-01-09T14:07:45.533Z,-17.04
2023-01-09T14:10:33.308Z,-17.06
2023-01-09T14:13:00.239Z,-17.04
2023-01-09T14:15:34.579Z,-17.03
2023-01-09T14:18:08.066Z,-17.02
2023-01-09T14:20:38.912Z,-17.11
2023-01-09T14:23:31.375Z,-17.17
2023-01-09T14:25:55.346Z,-17.15
2023-01-09T14:28:26.829Z,-17.31
2023-01-09T14:30:53.629Z,-17.12
2023-01-09T14:33:20.611Z,-17.17
2023-01-09T14:35:53.106Z,-17.15
2023-01-09T14:41:46.568Z,-17.10
2023-01-09T14:44:27.273Z,-17.10
2023-01-09T14:46:56.434Z,-17.12
2023-01-09T14:49:38.967Z,-17.15
2023-01-09T14:52:21.018Z,-17.17
2023-01-09T14:54:50.619Z,-17.18
2023-01-09T14:57:43.564Z,-17.20
2023-01-09T15:00:13.200Z,-17.23
2023-01-09T15:02:41.450Z,-17.21
2023-01-09T15:05:11.897Z,-17.29
2023-01-09T15:07:49.160Z,-17.24
2023-01-09T15:10:29.401Z,-17.16
2023-01-09T15:12:58.951Z,-17.16
2023-01-09T15:15:26.961Z,-17.18
2023-01-09T15:18:05.825Z,-17.15
2023-01-09T15:20:34.411Z,-17.18
2023-01-09T15:23:05.497Z,-17.16
2023-01-09T15:25:40.054Z,-17.17
2023-01-09T15:28:22.373Z,-17.18
2023-01-09T15:30:57.035Z,-17.22
2023-01-09T15:33:23.970Z,-17.26
2023-01-09T15:35:52.508Z,-17.30
2023-01-09T15:38:23.563Z,-17.48
2023-01-09T15:41:09.573Z,-17.33
2023-01-09T15:43:41.245Z,-17.45
2023-01-09T15:46:09.399Z,-17.49
2023-01-09T15:48:36.588Z,-17.53
2023-01-09T15:51:10.467Z,-17.60
2023-01-09T15:53:37.627Z,-17.66
2023-01-09T15:58:55.126Z,-17.59
2023-01-09T16:01:35.393Z,-17.58
2023-01-09T16:04:12.741Z,-17.54
2023-01-09T16:06:48.079Z,-17.53
2023-01-09T16:09:23.134Z,-17.50
2023-01-09T16:11:53.855Z,-17.55
2023-01-09T16:14:24.374Z,-17.60
2023-01-09T16:16:52.458Z,-17.58
2023-01-09T16:19:40.953Z,-17.55
2023-01-09T16:22:19.786Z,-17.55
2023-01-09T16:24:48.592Z,-17.59
2023-01-09T16:27:22.773Z,-17.64
2023-01-09T16:29:51.515Z,-17.69
2023-01-09T16:32:19.772Z,-17.70
2023-01-09T16:34:54.060Z,-17.72
2023-01-09T16:37:23.068Z,-17.73
2023-01-09T16:40:22.485Z,-17.75
2023-01-09T16:43:08.588Z,-17.83
2023-01-09T16:45:38.974Z,-17.79
2023-01-09T16:48:11.869Z,-17.76
2023-01-09T16:50:38.762Z,-17.75
2023-01-09T16:53:34.464Z,-17.76
2023-01-09T16:56:01.254Z,-17.74
2023-01-09T16:58:35.364Z,-17.71
2023-01-09T17:01:02.411Z,-17.74
2023-01-09T17:03:29.184Z,-17.78
2023-01-09T17:05:58.988Z,-17.82
2023-01-09T17:08:30.932Z,-17.81
2023-01-09T17:10:58.383Z,-17.82
2023-01-09T17:13:26.003Z,-17.89
2023-01-09T17:15:55.009Z,-17.94
2023-01-09T17:18:23.581Z,-17.99
2023-01-09T17:20:56.380Z,-18.07
2023-01-09T17:23:25.876Z,-18.17
2023-01-09T17:26:16.013Z,-18.14
2023-01-09T17:28:51.730Z,-18.00
2023-01-09T17:31:19.340Z,-18.06
2023-01-09T17:33:46.254Z,-18.07
2023-01-09T17:36:24.720Z,-18.05
2023-01-09T17:38:57.716Z,-18.08
2023-01-09T17:41:26.636Z,-18.08
2023-01-09T17:43:54.231Z,-18.11
2023-01-09T17:46:30.569Z,-18.17
2023-01-09T17:48:57.918Z,-18.40
2023-01-09T17:51:25.161Z,-18.26
2023-01-09T17:53:52.111Z,-18.27
2023-01-09T17:56:21.846Z,-18.28
2023-01-09T17:58:49.082Z,-18.32
2023-01-09T18:01:17.882Z,-18.38
2023-01-09T18:03:48.581Z,-18.54
2023-01-09T18:06:19.104Z,-18.39
2023-01-09T18:08:46.180Z,-18.47
2023-01-09T18:11:17.390Z,-18.44
2023-01-09T18:13:48.748Z,-18.49
2023-01-09T18:16:21.221Z,-18.48
2023-01-09T18:18:48.454Z,-18.54
2023-01-09T18:21:17.404Z,-18.56
2023-01-09T18:23:44.212Z,-18.54
2023-01-09T18:26:18.510Z,-18.56
2023-01-09T18:28:45.261Z,-18.53
2023-01-09T18:31:12.489Z,-18.54
2023-01-09T18:33:39.303Z,-18.60
2023-01-09T18:36:08.545Z,-18.65
2023-01-09T18:38:35.778Z,-18.63
2023-01-09T18:41:04.467Z,-18.63
2023-01-09T18:43:31.362Z,-18.63
2023-01-09T18:45:58.206Z,-18.69
2023-01-09T18:48:25.159Z,-18.68
2023-01-09T18:50:51.951Z,-18.69
2023-01-09T18:53:18.715Z,-18.73
2023-01-09T18:55:45.447Z,-18.73
2023-01-09T18:58:12.176Z,-18.74
2023-01-09T19:00:41.460Z,-18.72
2023-01-09T19:03:08.365Z,-18.70
2023-01-09T19:05:35.174Z,-18.68
2023-01-09T19:08:02.047Z,-18.77
2023-01-09T19:10:28.858Z,-18.76
2023-01-09T19:12:56.101Z,-18.86
2023-01-09T19:15:22.976Z,-18.70
2023-01-09T19:17:51.820Z,-18.70
2023-01-09T19:20:19.433Z,-18.73
2023-01-09T19:22:46.168Z,-18.73
2023-01-09T19:25:12.890Z,-18.69
2023-01-09T19:27:39.798Z,-18.69
2023-01-09T19:30:07.379Z,-18.67
2023-01-09T19:32:34.207Z,-18.68
2023-01-09T19:35:00.901Z,-18.72
2023-01-09T19:37:27.627Z,-18.75
2023-01-09T19:39:54.555Z,-18.75
2023-01-09T19:42:21.261Z,-18.75
2023-01-09T19:44:48.039Z,-18.74
2023-01-09T19:47:14.976Z,-18.77
2023-01-09T19:49:41.704Z,-18.74
2023-01-09T19:52:08.469Z,-18.68
2023-01-09T19:54:36.445Z,-18.69
2023-01-09T19:57:03.373Z,-18.71
2023-01-09T19:59:30.676Z,-18.78
2023-01-09T20:01:58.295Z,-18.91
2023-01-09T20:04:26.895Z,-18.90
2023-01-09T20:06:53.729Z,-18.91
2023-01-09T20:09:27.453Z,-18.86
2023-01-09T20:11:54.178Z,-18.92
2023-01-09T20:14:21.649Z,-19.00
2023-01-09T20:16:49.166Z,-19.04
2023-01-09T20:19:16.738Z,-19.05
2023-01-09T20:21:43.828Z,-19.05
2023-01-09T20:24:14.833Z,-19.00
2023-01-09T20:26:41.938Z,-18.99
2023-01-09T20:29:09.093Z,-19.03
2023-01-09T20:31:36.017Z,-19.01
2023-01-09T20:34:03.356Z,-19.03
2023-01-09T20:36:32.353Z,-19.07
2023-01-09T20:39:02.658Z,-19.10
2023-01-09T20:41:31.457Z,-19.12
2023-01-09T20:44:07.329Z,-19.16
2023-01-09T20:46:40.166Z,-19.14
2023-01-09T20:49:08.622Z,-19.21
2023-01-09T20:51:36.633Z,-19.17
2023-01-09T20:54:04.035Z,-19.22
2023-01-09T20:56:31.839Z,-19.20
2023-01-09T20:58:59.835Z,-19.21
2023-01-09T21:01:28.142Z,-19.27
2023-01-09T21:03:56.622Z,-19.31
2023-01-09T21:06:25.221Z,-19.25
2023-01-09T21:08:53.162Z,-19.23
2023-01-09T21:11:21.399Z,-19.30
2023-01-09T21:13:48.447Z,-19.33
2023-01-09T21:16:20.237Z,-19.34
2023-01-09T21:18:48.322Z,-19.39
2023-01-09T21:21:17.460Z,-19.42
2023-01-09T21:23:49.344Z,-19.40
2023-01-09T21:26:16.976Z,-19.40
2023-01-09T21:28:48.244Z,-19.40
2023-01-09T21:31:19.678Z,-19.44
2023-01-09T21:33:47.697Z,-19.41
2023-01-09T21:36:15.166Z,-19.46
2023-01-09T21:38:41.982Z,-19.68
2023-01-09T21:41:27.533Z,-19.39
2023-01-09T21:44:12.650Z,-19.35
2023-01-09T21:46:51.693Z,-19.34
2023-01-09T21:49:25.888Z,-19.37
2023-01-09T21:51:54.095Z,-19.37
2023-01-09T21:54:24.056Z,-19.40
2023-01-09T21:56:52.141Z,-19.45
2023-01-09T21:59:19.436Z,-19.34
2023-01-09T22:01:48.068Z,-19.35
2023-01-09T22:04:16.043Z,-19.34
2023-01-09T22:06:43.488Z,-19.34
2023-01-09T22:09:10.666Z,-19.33
2023-01-09T22:11:38.564Z,-19.40
2023-01-09T22:14:06.001Z,-19.37
2023-01-09T22:16:33.463Z,-19.44
2023-01-09T22:21:49.792Z,-19.42
2023-01-09T22:24:18.950Z,-19.54
2023-01-09T22:26:46.236Z,-19.54
2023-01-09T22:29:13.243Z,-19.50
2023-01-09T22:31:40.759Z,-19.70
2023-01-09T22:34:07.877Z,-19.46
2023-01-09T22:36:34.756Z,-19.45
2023-01-09T22:39:01.794Z,-19.43
2023-01-09T22:41:32.099Z,-19.44
2023-01-09T22:43:59.465Z,-19.43
2023-01-09T22:46:26.352Z,-19.46
2023-01-09T22:48:53.132Z,-19.44
2023-01-09T22:51:21.615Z,-19.43
2023-01-09T22:53:48.818Z,-19.54
2023-01-09T22:56:18.385Z,-19.40
2023-01-09T22:58:49.410Z,-19.36
2023-01-09T23:01:16.160Z,-19.43
2023-01-09T23:03:42.862Z,-19.48
2023-01-09T23:06:18.524Z,-19.45
2023-01-09T23:08:46.209Z,-19.42
2023-01-09T23:11:16.113Z,-19.60
2023-01-09T23:13:42.841Z,-19.46
2023-01-09T23:16:09.733Z,-19.48
2023-01-09T23:18:36.688Z,-19.41
2023-01-09T23:21:05.373Z,-19.43
2023-01-09T23:23:32.871Z,-19.45
2023-01-09T23:26:03.514Z,-19.48
2023-01-09T23:28:30.696Z,-19.46
2023-01-09T23:30:57.525Z,-19.44
2023-01-09T23:33:25.069Z,-19.49
2023-01-09T23:35:51.843Z,-19.47
2023-01-09T23:38:18.573Z,-19.48
2023-01-09T23:40:45.373Z,-19.48
2023-01-09T23:43:14.010Z,-19.48
2023-01-09T23:45:41.884Z,-19.49
2023-01-09T23:48:10.916Z,-19.50
2023-01-09T23:50:38.057Z,-19.47
2023-01-09T23:53:05.376Z,-19.46
2023-01-09T23:55:32.261Z,-19.51
2023-01-09T23:57:59.011Z,-19.39
